Time;durP1;ratioP1;P1;durP2;ratioP2;P2;SDS_P1;SDS_P2;PMS_P1;PMS_P2;Temp;Humidity;BMP_temperature;BMP_pressure;BME280_temperature;BME280_humidity;BME280_pressure;Samples;Min_cycle;Max_cycle;Signal;HPM_P1;HPM_P2
2023/03/09 00:00:10;;;;;;;9.05;1.75;;;;;;;12.83;59.90;98076.66;4435728;32;20169;-89
2023/03/09 00:02:35;;;;;;;2.37;1.83;;;;;;;12.92;59.90;98073.41;4427113;32;20139;-90
2023/03/09 00:05:04;;;;;;;3.83;1.52;;;;;;;12.99;59.90;98066.81;4445015;32;20121;-88
2023/03/09 00:07:30;;;;;;;1.90;0.98;;;;;;;13.02;59.90;98077.09;4439577;32;20126;-90
2023/03/09 00:09:56;;;;;;;2.62;1.90;;;;;;;12.88;59.89;98066.75;4446502;32;20136;-90
2023/03/09 00:12:22;;;;;;;2.70;1.50;;;;;;;13.13;59.91;98066.72;4426622;32;20180;-89
2023/03/09 00:14:52;;;;;;;3.05;1.85;;;;;;;13.04;59.91;98056.09;4469454;32;20076;-90
2023/03/09 00:17:18;;;;;;;4.20;1.87;;;;;;;13.08;59.91;98062.75;4429888;32;20088;-91
2023/03/09 00:19:43;;;;;;;6.00;1.60;;;;;;;13.07;59.91;98061.09;4437300;32;20444;-89
2023/03/09 00:22:11;;;;;;;4.62;1.70;;;;;;;12.96;59.91;98064.44;4463695;32;20454;-89
2023/03/09 00:24:45;;;;;;;4.78;1.50;;;;;;;13.19;59.92;98060.25;4455534;32;20084;-88
2023/03/09 00:27:11;;;;;;;4.25;1.42;;;;;;;13.07;59.91;98064.53;4431217;32;20102;-89
2023/03/09 00:29:36;;;;;;;3.45;1.27;;;;;;;13.05;59.91;98061.19;4427904;32;20109;-90
2023/03/09 00:32:05;;;;;;;5.43;1.62;;;;;;;13.07;59.91;98061.94;4429599;32;20161;-89
2023/03/09 00:34:30;;;;;;;2.70;1.65;;;;;;;13.13;59.92;98058.06;4442326;32;20160;-89
2023/03/09 00:36:56;;;;;;;4.72;1.60;;;;;;;13.18;59.92;98048.97;4454446;32;20124;-89
2023/03/09 00:39:21;;;;;;;5.60;1.75;;;;;;;13.23;59.92;98053.03;4468978;32;20168;-89
2023/03/09 00:41:47;;;;;;;4.20;1.80;;;;;;;13.21;59.92;98040.09;4454767;32;20112;-89
2023/03/09 00:47:04;;;;;;;3.50;1.50;;;;;;;13.23;59.92;98034.75;4456827;32;20170;-89
2023/03/09 00:49:30;;;;;;;3.37;1.35;;;;;;;13.28;59.92;98023.06;4469880;32;20096;-89
2023/03/09 00:51:55;;;;;;;4.78;1.75;;;;;;;13.26;59.92;98031.94;4455809;32;20101;-89
2023/03/09 00:54:20;;;;;;;4.05;1.60;;;;;;;13.09;59.91;98028.69;4430189;32;20152;-89
2023/03/09 00:56:46;;;;;;;4.45;1.20;;;;;;;13.17;59.91;98021.19;4442899;32;20092;-89
2023/03/09 00:59:11;;;;;;;4.45;1.37;;;;;;;13.20;59.93;98015.75;4455582;32;20097;-89
2023/03/09 01:01:37;;;;;;;3.55;1.23;;;;;;;13.10;59.91;98017.31;4455105;32;20112;-90
2023/03/09 01:04:03;;;;;;;3.92;1.58;;;;;;;13.24;59.92;98012.91;4442881;32;20108;-90
2023/03/09 01:06:28;;;;;;;3.03;1.42;;;;;;;13.09;59.91;98010.41;4455695;32;20472;-90
2023/03/09 01:08:54;;;;;;;2.45;1.37;;;;;;;13.15;59.91;98009.97;4442732;32;20164;-90
2023/03/09 01:11:19;;;;;;;3.47;1.10;;;;;;;13.07;59.91;98004.47;4430107;32;20104;-89
2023/03/09 01:13:45;;;;;;;3.17;1.58;;;;;;;13.07;59.91;98011.47;4442754;32;20119;-89
2023/03/09 01:16:10;;;;;;;3.25;1.30;;;;;;;12.91;59.90;98015.12;4442963;32;20088;-88
2023/03/09 01:18:36;;;;;;;3.33;1.27;;;;;;;12.94;59.90;98018.47;4455868;32;20475;-89
2023/03/09 01:21:01;;;;;;;5.10;1.50;;;;;;;13.04;59.91;97998.63;4430171;32;20108;-90
2023/03/09 01:23:26;;;;;;;3.40;2.03;;;;;;;12.82;59.90;98001.88;4442828;32;20127;-89
2023/03/09 01:25:52;;;;;;;3.87;1.25;;;;;;;12.91;59.90;98001.25;4442950;32;20084;-90
2023/03/09 01:28:17;;;;;;;5.53;1.20;;;;;;;12.80;59.89;97995.94;4442767;32;20426;-89
2023/03/09 01:30:43;;;;;;;3.80;1.48;;;;;;;12.85;59.90;97988.63;4442484;32;20112;-89
2023/03/09 01:33:08;;;;;;;2.90;1.65;;;;;;;12.65;59.88;97987.38;4442729;32;20432;-88
2023/03/09 01:35:34;;;;;;;3.40;1.67;;;;;;;12.85;59.90;97986.00;4442248;32;20088;-88
2023/03/09 01:37:59;;;;;;;5.97;1.37;;;;;;;12.75;59.90;97991.00;4458263;32;20522;-89
2023/03/09 01:40:26;;;;;;;4.10;1.60;;;;;;;12.84;59.89;97979.09;4445001;32;20172;-90
2023/03/09 01:42:58;;;;;;;4.78;1.60;;;;;;;12.85;59.90;97979.00;4455609;32;20135;-89
2023/03/09 01:45:27;;;;;;;3.35;1.30;;;;;;;12.68;59.89;97973.28;4455857;32;20096;-88
2023/03/09 01:47:53;;;;;;;5.18;1.52;;;;;;;12.81;59.90;97964.50;4469868;32;20162;-90
2023/03/09 01:50:23;;;;;;;4.28;1.48;;;;;;;12.75;59.89;97972.72;4442817;32;20370;-89
2023/03/09 01:52:51;;;;;;;3.28;1.50;;;;;;;12.83;59.90;97972.22;4443687;32;20097;-90
2023/03/09 01:55:21;;;;;;;4.28;1.50;;;;;;;12.67;59.89;97967.22;4455696;32;20127;-90
2023/03/09 01:58:01;;;;;;;6.03;1.60;;;;;;;12.52;59.88;97961.25;4442728;32;20116;-89
2023/03/09 02:00:26;;;;;;;3.50;1.48;;;;;;;12.48;59.88;97957.19;4436530;32;184772;-89
2023/03/09 02:03:06;;;;;;;3.42;1.90;;;;;;;12.58;59.88;97947.81;4442166;32;20096;-89
2023/03/09 02:05:34;;;;;;;4.07;1.50;;;;;;;12.66;59.89;97949.88;4442528;32;20184;-90
2023/03/09 02:07:59;;;;;;;4.05;1.40;;;;;;;12.53;59.88;97951.66;4442172;32;20156;-88
2023/03/09 02:10:36;;;;;;;3.30;1.98;;;;;;;12.60;59.88;97948.53;4454745;32;20140;-89
2023/03/09 02:13:05;;;;;;;6.25;1.60;;;;;;;12.53;59.88;97942.03;4444228;32;20461;-88
2023/03/09 02:15:31;;;;;;;2.58;1.90;;;;;;;12.52;59.88;97945.59;4444566;32;20089;-88
2023/03/09 02:17:56;;;;;;;3.15;1.48;;;;;;;12.45;59.88;97939.12;4457178;32;20096;-88
2023/03/09 02:20:42;;;;;;;4.22;1.67;;;;;;;12.52;59.88;97937.78;4444358;32;20104;-89
2023/03/09 02:23:10;;;;;;;2.92;1.33;;;;;;;12.37;59.88;97927.56;4458452;32;20528;-89
2023/03/09 02:25:42;;;;;;;3.08;1.58;;;;;;;12.41;59.87;97926.41;4444099;32;20162;-88
2023/03/09 02:28:07;;;;;;;2.55;1.48;;;;;;;12.38;59.87;97930.06;4444153;32;20180;-89
2023/03/09 02:30:35;;;;;;;9.40;1.80;;;;;;;12.38;59.87;97931.84;4431109;32;20171;-89
2023/03/09 02:33:03;;;;;;;8.73;1.83;;;;;;;12.29;59.87;97928.91;4457151;32;20100;-88
2023/03/09 02:35:28;;;;;;;6.12;1.62;;;;;;;12.16;59.86;97933.28;4444191;32;20489;-88
2023/03/09 02:37:53;;;;;;;2.25;1.50;;;;;;;12.33;59.87;97924.34;4444087;32;20112;-88
2023/03/09 02:40:31;;;;;;;4.57;1.50;;;;;;;12.13;59.86;97930.06;4471074;32;20129;-88
2023/03/09 02:42:56;;;;;;;7.00;1.65;;;;;;;12.09;59.85;97920.78;4444332;32;20111;-88
2023/03/09 02:45:22;;;;;;;2.70;1.87;;;;;;;12.05;59.85;97919.28;4456661;32;20089;-90
2023/03/09 02:47:48;;;;;;;4.32;2.00;;;;;;;12.19;59.86;97907.00;4443981;32;20120;-88
2023/03/09 02:50:13;;;;;;;4.70;1.70;;;;;;;11.95;59.84;97913.88;4443761;32;20109;-89
2023/03/09 02:52:39;;;;;;;6.00;2.05;;;;;;;12.10;59.86;97919.84;4457028;32;20124;-89
2023/03/09 02:55:05;;;;;;;3.92;1.75;;;;;;;12.03;59.85;97929.81;4456833;32;20093;-89
2023/03/09 02:57:30;;;;;;;4.30;2.08;;;;;;;12.06;59.86;97934.00;4443933;32;20105;-90
2023/03/09 02:59:55;;;;;;;4.62;2.05;;;;;;;11.95;59.84;97930.34;4443867;32;20441;-89
2023/03/09 03:02:21;;;;;;;2.72;1.50;;;;;;;11.88;59.84;97934.31;4456992;32;20495;-89
2023/03/09 03:04:46;;;;;;;4.40;2.08;;;;;;;11.91;59.85;97928.06;4457008;32;20377;-89
2023/03/09 03:07:12;;;;;;;5.97;2.47;;;;;;;11.79;59.84;97921.03;4456928;32;20160;-89
2023/03/09 03:09:37;;;;;;;3.12;1.80;;;;;;;11.88;59.84;97925.66;4456848;32;20084;-89
2023/03/09 03:12:03;;;;;;;6.78;2.22;;;;;;;11.85;59.84;97944.94;4469912;32;20429;-89
2023/03/09 03:14:28;;;;;;;4.12;1.98;;;;;;;11.68;59.84;97947.78;4431236;32;20130;-89
2023/03/09 03:16:54;;;;;;;3.37;1.67;;;;;;;11.70;59.84;97943.28;4471256;32;20108;-89
2023/03/09 03:19:20;;;;;;;3.72;1.80;;;;;;;11.75;59.83;97940.38;4459137;32;20396;-89
2023/03/09 03:21:45;;;;;;;6.57;2.10;;;;;;;11.46;59.83;97940.50;4471192;32;20093;-90
2023/03/09 03:24:10;;;;;;;6.20;1.75;;;;;;;11.54;59.83;97932.19;4430449;32;20152;-89
2023/03/09 03:26:36;;;;;;;9.48;1.75;;;;;;;11.57;59.82;97932.81;4431102;32;20147;-89
2023/03/09 03:29:02;;;;;;;7.80;2.42;;;;;;;11.48;59.82;97933.44;4456681;32;20144;-90
2023/03/09 03:31:27;;;;;;;5.37;2.25;;;;;;;11.57;59.82;97938.03;4431120;32;20187;-90
2023/03/09 03:33:53;;;;;;;7.78;2.22;;;;;;;11.60;59.83;97939.62;4430927;32;20104;-90
2023/03/09 03:36:18;;;;;;;6.18;1.80;;;;;;;11.33;59.82;97932.62;4456677;32;20101;-90
2023/03/09 03:38:43;;;;;;;6.07;1.98;;;;;;;11.40;59.82;97950.50;4456721;32;20112;-89
2023/03/09 03:41:09;;;;;;;5.50;1.92;;;;;;;11.30;59.81;97961.47;4443838;32;20223;-89
2023/03/09 03:43:34;;;;;;;6.07;1.85;;;;;;;11.59;59.82;97961.38;4443633;32;20111;-90
2023/03/09 03:46:00;;;;;;;4.55;1.80;;;;;;;11.35;59.81;97966.37;4430782;32;20127;-89
2023/03/09 03:48:25;;;;;;;4.57;1.87;;;;;;;11.38;59.82;97967.06;4443455;32;20126;-89
2023/03/09 03:50:50;;;;;;;7.43;1.70;;;;;;;11.43;59.81;97958.09;4470746;32;20093;-89
2023/03/09 03:53:16;;;;;;;5.28;2.00;;;;;;;11.40;59.82;97956.53;4443532;32;20148;-90
2023/03/09 03:55:41;;;;;;;6.40;1.80;;;;;;;11.21;59.81;97956.03;4430684;32;20156;-88
2023/03/09 03:58:07;;;;;;;9.07;5.12;;;;;;;11.20;59.80;97955.19;4443602;32;20140;-89
2023/03/09 04:00:32;;;;;;;6.22;2.40;;;;;;;11.28;59.81;97947.72;4443344;32;20111;-90
2023/03/09 04:02:58;;;;;;;5.62;2.45;;;;;;;11.22;59.81;97953.31;4443641;32;20076;-89
2023/03/09 04:05:23;;;;;;;6.82;2.65;;;;;;;11.20;59.80;97957.78;4443591;32;20493;-90
2023/03/09 04:07:49;;;;;;;5.32;2.67;;;;;;;11.23;59.81;97955.00;4443501;32;20138;-90
2023/03/09 04:10:15;;;;;;;4.55;2.05;;;;;;;11.31;59.81;97947.53;4430508;32;20077;-89
2023/03/09 04:12:40;;;;;;;5.40;2.50;;;;;;;11.22;59.81;97961.13;4443286;32;20112;-90
2023/03/09 04:15:06;;;;;;;5.22;2.33;;;;;;;11.22;59.80;97962.91;4469307;32;20088;-90
2023/03/09 04:17:31;;;;;;;6.00;2.53;;;;;;;11.07;59.79;97956.88;4456394;32;20137;-91
2023/03/09 04:19:57;;;;;;;3.78;1.77;;;;;;;11.05;59.79;97938.75;4443533;32;20101;-92
2023/03/09 04:22:22;;;;;;;7.82;2.00;;;;;;;11.11;59.80;97942.72;4443694;32;20076;-91
2023/03/09 04:24:48;;;;;;;5.68;2.53;;;;;;;11.07;59.80;97949.91;4430843;32;20436;-91
2023/03/09 04:27:13;;;;;;;5.75;1.98;;;;;;;10.89;59.79;97950.25;4443677;32;20108;-91
2023/03/09 04:29:39;;;;;;;4.70;2.20;;;;;;;10.93;59.79;97947.34;4443682;32;20114;-91
2023/03/09 04:32:05;;;;;;;4.97;2.00;;;;;;;10.87;59.79;97942.50;4443913;32;20124;-90
2023/03/09 04:34:30;;;;;;;4.72;2.35;;;;;;;10.83;59.78;97938.41;4430674;32;20887;-90
2023/03/09 04:36:56;;;;;;;5.05;2.05;;;;;;;11.04;59.79;97933.66;4431445;32;20109;-90
2023/03/09 04:39:21;;;;;;;5.53;1.95;;;;;;;10.97;59.79;97930.59;4444157;32;20100;-91
2023/03/09 04:41:46;;;;;;;5.03;2.00;;;;;;;10.99;59.79;97915.72;4430651;32;20092;-91
2023/03/09 04:44:12;;;;;;;3.58;1.70;;;;;;;10.86;59.79;97912.19;4430558;32;20395;-90
2023/03/09 04:46:37;;;;;;;4.95;2.37;;;;;;;10.81;59.78;97910.81;4443353;32;20161;-91
2023/03/09 04:49:03;;;;;;;5.12;2.20;;;;;;;10.72;59.78;97920.03;4455974;32;20096;-91
2023/03/09 04:51:29;;;;;;;6.35;2.42;;;;;;;10.62;59.78;97909.34;4430586;32;20451;-91
2023/03/09 04:53:55;;;;;;;5.15;2.45;;;;;;;10.64;59.77;97897.06;4430393;32;20156;-89
2023/03/09 04:56:20;;;;;;;5.55;2.72;;;;;;;10.65;59.77;97895.34;4456270;32;20073;-90
2023/03/09 04:58:46;;;;;;;5.60;2.22;;;;;;;10.60;59.77;97900.78;4444465;32;20096;-90
2023/03/09 05:01:12;;;;;;;4.35;2.28;;;;;;;10.58;59.77;97901.81;4445389;32;20131;-89
2023/03/09 05:03:37;;;;;;;8.07;2.03;;;;;;;10.76;59.79;97898.94;4443349;32;20130;-89
2023/03/09 05:06:03;;;;;;;4.32;2.30;;;;;;;10.64;59.78;97907.47;4442751;32;20751;-89
2023/03/09 05:08:29;;;;;;;5.18;2.42;;;;;;;10.59;59.77;97914.75;4443162;32;20081;-90
2023/03/09 05:10:54;;;;;;;5.75;2.40;;;;;;;10.55;59.76;97904.63;4455525;32;20103;-91
2023/03/09 05:13:19;;;;;;;5.60;2.78;;;;;;;10.60;59.77;97893.00;4442774;32;20156;-90
2023/03/09 05:15:45;;;;;;;8.15;2.67;;;;;;;10.63;59.78;97907.56;4455874;32;20122;-88
2023/03/09 05:18:11;;;;;;;3.85;2.10;;;;;;;10.56;59.77;97908.88;4442747;32;20129;-89
2023/03/09 05:20:37;;;;;;;5.70;2.50;;;;;;;10.83;59.78;97908.94;4455589;32;20157;-89
2023/03/09 05:23:03;;;;;;;7.97;2.60;;;;;;;10.65;59.77;97913.56;4442763;32;20217;-91
2023/03/09 05:25:28;;;;;;;4.62;2.20;;;;;;;10.57;59.77;97916.59;4430183;32;20153;-90
2023/03/09 05:27:53;;;;;;;5.50;3.12;;;;;;;10.60;59.77;97911.22;4442759;32;20231;-90
2023/03/09 05:30:19;;;;;;;6.07;2.78;;;;;;;10.62;59.78;97916.31;4442292;32;20177;-89
2023/03/09 05:32:45;;;;;;;5.82;2.95;;;;;;;10.86;59.79;97907.00;4455663;32;20105;-90
2023/03/09 05:35:11;;;;;;;8.77;3.10;;;;;;;11.01;59.80;97903.44;4469618;32;20119;-90
2023/03/09 05:37:36;;;;;;;9.75;2.67;;;;;;;10.81;59.78;97901.25;4442640;32;20089;-89
2023/03/09 05:40:04;;;;;;;4.90;3.10;;;;;;;10.72;59.78;97907.88;4455329;32;20417;-89
2023/03/09 05:42:30;;;;;;;3.92;2.33;;;;;;;10.80;59.78;97915.19;4442572;32;20126;-90
2023/03/09 05:44:55;;;;;;;6.85;2.53;;;;;;;10.85;59.79;97905.31;4455041;32;20100;-90
2023/03/09 05:47:21;;;;;;;5.87;2.28;;;;;;;10.88;59.79;97904.28;4456617;32;20156;-89
2023/03/09 05:49:48;;;;;;;6.35;2.37;;;;;;;11.17;59.80;97897.25;4444208;32;20109;-90
2023/03/09 05:52:14;;;;;;;6.68;2.60;;;;;;;11.30;59.81;97885.94;4444278;32;20084;-89
2023/03/09 05:54:39;;;;;;;7.22;2.80;;;;;;;11.30;59.80;97908.56;4457473;32;20161;-90
2023/03/09 05:57:05;;;;;;;5.25;1.70;;;;;;;11.32;59.81;97923.16;4431765;32;20104;-90
2023/03/09 05:59:30;;;;;;;8.02;2.78;;;;;;;11.49;59.82;97910.81;4444608;32;20097;-89
2023/03/09 06:01:56;;;;;;;4.72;2.10;;;;;;;11.52;59.82;97892.38;4430722;32;20144;-88
2023/03/09 06:04:21;;;;;;;7.10;2.00;;;;;;;11.64;59.83;97891.59;4456200;32;20101;-89
2023/03/09 06:06:47;;;;;;;3.55;1.85;;;;;;;11.75;59.83;97880.44;4456970;32;20119;-88
2023/03/09 06:09:12;;;;;;;3.08;1.98;;;;;;;11.90;59.85;97895.94;4456438;32;20112;-88
2023/03/09 06:11:37;;;;;;;6.20;1.80;;;;;;;11.92;59.85;97898.44;4470683;32;20137;-89
2023/03/09 06:14:03;;;;;;;3.50;1.45;;;;;;;12.09;59.85;97905.13;4456205;32;20148;-88
2023/03/09 06:16:28;;;;;;;5.47;1.87;;;;;;;12.13;59.86;97909.19;4443482;32;20393;-88
2023/03/09 06:18:55;;;;;;;9.30;2.10;;;;;;;12.19;59.85;97904.41;4456543;32;20085;-88
2023/03/09 06:21:20;;;;;;;6.15;1.90;;;;;;;12.31;59.87;97910.56;4471229;32;20108;-88
2023/03/09 06:23:46;;;;;;;4.75;2.03;;;;;;;12.38;59.87;97908.38;4430616;32;20441;-89
2023/03/09 06:26:11;;;;;;;6.18;1.85;;;;;;;12.41;59.87;97898.53;4431251;32;20144;-88
2023/03/09 06:28:37;;;;;;;5.55;1.87;;;;;;;12.51;59.88;97901.34;4431139;32;20123;-89
2023/03/09 06:31:07;;;;;;;6.72;2.17;;;;;;;12.66;59.89;97909.91;4431315;32;20172;-89
2023/03/09 06:33:33;;;;;;;3.45;1.95;;;;;;;12.69;59.89;97917.50;4457073;32;20109;-88
2023/03/09 06:36:00;;;;;;;3.67;1.83;;;;;;;12.74;59.89;97907.56;4457170;32;20111;-89
2023/03/09 06:38:26;;;;;;;9.73;2.10;;;;;;;12.82;59.90;97923.56;4445932;32;20073;-91
2023/03/09 06:40:54;;;;;;;4.65;2.25;;;;;;;12.91;59.90;97918.50;4432827;32;20412;-87
2023/03/09 06:43:20;;;;;;;2.72;1.77;;;;;;;13.05;59.91;97919.31;4456636;32;20120;-88
2023/03/09 06:45:45;;;;;;;4.40;1.65;;;;;;;13.03;59.91;97916.81;4456996;32;20390;-88
2023/03/09 06:48:11;;;;;;;5.62;1.70;;;;;;;13.13;59.92;97917.81;4456674;32;20113;-87
2023/03/09 06:50:36;;;;;;;3.78;1.80;;;;;;;13.24;59.91;97919.69;4443705;32;20101;-88
2023/03/09 06:53:02;;;;;;;6.68;2.03;;;;;;;13.36;59.92;97908.34;4443902;32;20092;-87
2023/03/09 06:55:28;;;;;;;4.20;1.90;;;;;;;13.38;59.93;97908.25;4431131;32;20458;-88
2023/03/09 06:57:53;;;;;;;2.42;1.35;;;;;;;13.44;59.93;97915.63;4429906;32;20097;-88
2023/03/09 07:00:19;;;;;;;5.90;1.70;;;;;;;13.52;59.94;97918.53;4456874;32;20431;-88
2023/03/09 07:02:45;;;;;;;4.03;1.58;;;;;;;13.46;59.93;97935.47;4456953;32;20100;-88
2023/03/09 07:05:10;;;;;;;2.28;1.37;;;;;;;13.58;59.94;97925.94;4456840;32;20368;-90
2023/03/09 07:07:35;;;;;;;6.10;1.62;;;;;;;13.59;59.94;97934.59;4444251;32;20421;-88
2023/03/09 07:10:01;;;;;;;5.85;1.33;;;;;;;13.70;59.94;97939.88;4443895;32;20101;-86
2023/03/09 07:12:26;;;;;;;7.15;2.22;;;;;;;13.78;59.94;97938.38;4470797;32;20118;-88
2023/03/09 07:14:52;;;;;;;3.78;1.65;;;;;;;13.79;59.95;97928.75;4456900;32;20181;-89
2023/03/09 07:17:17;;;;;;;3.70;1.35;;;;;;;13.87;59.94;97917.72;4443860;32;20118;-88
2023/03/09 07:19:43;;;;;;;3.72;1.55;;;;;;;13.84;59.95;97926.63;4430943;32;20123;-88
2023/03/09 07:22:08;;;;;;;4.20;1.20;;;;;;;13.92;59.95;97932.09;4456980;32;20160;-88
2023/03/09 07:24:34;;;;;;;3.10;1.60;;;;;;;13.86;59.94;97931.72;4443979;32;20084;-88
2023/03/09 07:27:00;;;;;;;4.57;1.35;;;;;;;13.87;59.96;97939.47;4443926;32;20504;-88
2023/03/09 07:29:26;;;;;;;3.03;1.50;;;;;;;13.93;59.95;97959.09;4456669;32;20121;-87
2023/03/09 07:31:51;;;;;;;5.62;1.77;;;;;;;13.92;59.95;97970.50;4456521;32;20100;-87
2023/03/09 07:34:16;;;;;;;4.70;1.40;;;;;;;13.93;59.95;97966.94;4443826;32;20089;-87
2023/03/09 07:36:42;;;;;;;7.65;2.03;;;;;;;13.92;59.95;97968.72;4456615;32;20143;-88
2023/03/09 07:39:07;;;;;;;4.10;1.40;;;;;;;13.89;59.96;97971.56;4443625;32;20093;-87
2023/03/09 07:41:33;;;;;;;3.22;1.20;;;;;;;13.82;59.95;97978.22;4456560;32;20163;-87
2023/03/09 07:43:58;;;;;;;4.50;1.40;;;;;;;13.98;59.95;97959.63;4456517;32;20080;-87
2023/03/09 07:46:24;;;;;;;3.22;1.30;;;;;;;14.04;59.96;97946.91;4456530;32;20089;-87
2023/03/09 07:48:49;;;;;;;5.57;1.60;;;;;;;14.00;59.95;97944.63;4456085;32;20175;-88
2023/03/09 07:51:15;;;;;;;2.85;1.42;;;;;;;14.19;59.97;97936.22;4443783;32;20097;-88
2023/03/09 07:53:40;;;;;;;3.72;1.23;;;;;;;14.21;59.97;97937.78;4430839;32;20154;-86
2023/03/09 07:56:06;;;;;;;4.45;1.40;;;;;;;14.21;59.97;97931.72;4443544;32;20171;-87
2023/03/09 07:58:32;;;;;;;5.78;1.20;;;;;;;14.21;59.97;97934.34;4470646;32;20111;-87
2023/03/09 08:00:58;;;;;;;2.33;1.15;;;;;;;14.25;59.96;97943.63;4470726;32;20100;-87
2023/03/09 08:03:23;;;;;;;5.22;1.40;;;;;;;14.34;59.98;97935.91;4456585;32;20084;-87
2023/03/09 08:05:55;;;;;;;3.25;1.10;;;;;;;14.32;59.97;97932.56;4456351;32;20089;-87
2023/03/09 08:08:21;;;;;;;3.65;1.35;;;;;;;14.45;59.98;97929.88;4456133;32;20589;-87
2023/03/09 08:10:48;;;;;;;2.83;1.00;;;;;;;14.51;59.98;97933.81;4443016;32;20213;-87
2023/03/09 08:13:13;;;;;;;6.40;2.17;;;;;;;14.55;60.00;97930.84;4443610;32;20156;-87
2023/03/09 08:15:39;;;;;;;4.20;1.73;;;;;;;14.50;59.98;97947.84;4443556;32;20136;-87
2023/03/09 08:18:04;;;;;;;3.67;1.80;;;;;;;14.61;59.99;97945.22;4471736;32;20108;-87
2023/03/09 08:20:30;;;;;;;3.45;1.40;;;;;;;14.78;60.00;97941.31;4458161;32;20130;-87
2023/03/09 08:22:56;;;;;;;3.35;1.20;;;;;;;14.78;60.01;97955.25;4456510;32;20096;-87
2023/03/09 08:25:22;;;;;;;5.05;1.08;;;;;;;14.79;60.00;97962.16;4456419;32;20179;-87
2023/03/09 08:27:48;;;;;;;4.78;1.60;;;;;;;14.70;59.99;97973.34;4443263;32;20162;-87
2023/03/09 08:30:14;;;;;;;4.30;1.02;;;;;;;14.82;60.00;97980.25;4443447;32;20101;-88
2023/03/09 08:32:40;;;;;;;4.15;1.33;;;;;;;14.98;60.01;97985.12;4456304;32;20092;-87
2023/03/09 08:35:06;;;;;;;3.08;1.25;;;;;;;15.19;60.02;97978.22;4443367;32;20115;-87
2023/03/09 08:37:31;;;;;;;3.45;1.58;;;;;;;15.37;60.03;97965.41;4456189;32;20169;-87
2023/03/09 08:39:56;;;;;;;5.57;1.95;;;;;;;15.42;60.03;97965.06;4430427;32;20121;-87
2023/03/09 08:42:22;;;;;;;4.75;2.35;;;;;;;15.48;60.04;97973.28;4456208;32;20132;-87
2023/03/09 08:44:47;;;;;;;4.25;1.75;;;;;;;15.60;60.04;97972.31;4443808;32;20073;-87
2023/03/09 08:47:13;;;;;;;5.43;1.90;;;;;;;15.78;60.05;97946.38;4456265;32;20485;-87
2023/03/09 08:49:40;;;;;;;6.03;2.17;;;;;;;15.71;60.05;97939.12;4453354;32;20142;-87
2023/03/09 08:52:06;;;;;;;6.68;1.62;;;;;;;15.71;60.05;97942.59;4453335;32;20100;-88
2023/03/09 08:54:32;;;;;;;4.85;1.80;;;;;;;15.84;60.05;97943.25;4440756;32;20465;-87
2023/03/09 08:56:57;;;;;;;3.33;1.52;;;;;;;15.77;60.05;97947.34;4440566;32;20109;-87
2023/03/09 08:59:22;;;;;;;5.68;1.48;;;;;;;15.87;60.06;97964.00;4453410;32;20112;-87
2023/03/09 09:01:48;;;;;;;2.83;1.70;;;;;;;15.85;60.05;97958.06;4453399;32;20395;-86
2023/03/09 09:04:13;;;;;;;3.87;1.15;;;;;;;16.02;60.07;97951.41;4440382;32;20426;-87
2023/03/09 09:06:39;;;;;;;4.40;1.37;;;;;;;16.05;60.07;97945.88;4440326;32;20138;-87
2023/03/09 09:09:04;;;;;;;12.02;2.78;;;;;;;16.10;60.08;97949.00;4453080;32;20119;-87
2023/03/09 09:11:29;;;;;;;3.83;1.60;;;;;;;16.20;60.08;97954.28;4453229;32;20138;-87
2023/03/09 09:13:56;;;;;;;4.60;1.45;;;;;;;16.22;60.07;97962.88;4453289;32;20137;-87
2023/03/09 09:16:21;;;;;;;3.03;1.42;;;;;;;16.50;60.09;97970.09;4440437;32;20105;-87
2023/03/09 09:18:47;;;;;;;5.03;1.48;;;;;;;16.66;60.10;97967.03;4440344;32;20164;-87
2023/03/09 09:21:14;;;;;;;2.58;1.02;;;;;;;16.72;60.11;97965.69;4453439;32;20107;-87
2023/03/09 09:23:40;;;;;;;4.35;1.27;;;;;;;16.97;60.12;97969.66;4453192;32;20440;-87
2023/03/09 09:26:05;;;;;;;3.15;1.60;;;;;;;17.05;60.12;97975.09;4440461;32;20143;-88
2023/03/09 09:28:31;;;;;;;3.55;1.02;;;;;;;17.05;60.12;97977.72;4453048;32;20149;-87
2023/03/09 09:30:58;;;;;;;2.90;1.02;;;;;;;17.17;60.13;97977.47;4440118;32;20089;-87
2023/03/09 09:33:24;;;;;;;4.03;1.25;;;;;;;17.45;60.14;97975.91;4452849;32;20105;-87
2023/03/09 09:36:08;;;;;;;3.87;1.48;;;;;;;17.40;60.14;97983.38;4454222;32;20089;-87
2023/03/09 09:38:34;;;;;;;3.12;1.10;;;;;;;17.41;60.14;97973.69;4440800;32;20113;-87
2023/03/09 09:41:10;;;;;;;2.60;1.10;;;;;;;17.56;60.15;97974.97;4439859;32;20474;-88
2023/03/09 09:43:35;;;;;;;2.08;0.93;;;;;;;17.56;60.15;97974.13;4453054;32;20146;-87
2023/03/09 09:46:01;;;;;;;5.65;1.83;;;;;;;17.79;60.17;97981.66;4452848;32;20369;-88
2023/03/09 09:48:26;;;;;;;5.10;2.22;;;;;;;18.02;60.18;97986.66;4452641;32;20392;-88
2023/03/09 09:51:15;;;;;;;3.00;1.45;;;;;;;18.26;60.20;97973.06;4427217;32;20089;-87
2023/03/09 09:53:57;;;;;;;2.42;1.10;;;;;;;18.54;60.20;97953.75;4445752;32;20142;-87
2023/03/09 09:56:26;;;;;;;1.75;1.10;;;;;;;18.83;60.21;97937.84;4453475;32;20161;-88
2023/03/09 09:58:58;;;;;;;8.05;1.45;;;;;;;19.04;60.22;97935.00;4440598;32;20118;-87
2023/03/09 10:01:27;;;;;;;3.55;1.25;;;;;;;19.19;60.23;97948.53;4440273;32;20089;-87
2023/03/09 10:03:52;;;;;;;5.45;0.98;;;;;;;19.45;60.25;97967.13;4440556;32;20097;-87
2023/03/09 10:06:21;;;;;;;3.05;1.10;;;;;;;19.42;60.24;97976.16;4427348;32;20160;-87
2023/03/09 10:08:50;;;;;;;3.53;1.20;;;;;;;19.49;60.25;97974.59;4452663;32;20096;-87
2023/03/09 10:11:27;;;;;;;2.92;1.02;;;;;;;19.44;60.25;97976.84;4453720;32;20085;-88
2023/03/09 10:14:07;;;;;;;2.15;0.90;;;;;;;19.53;60.25;97978.63;4453266;32;20150;-88
2023/03/09 10:16:35;;;;;;;5.65;0.95;;;;;;;19.55;60.26;97966.09;4427708;32;20458;-87
2023/03/09 10:19:02;;;;;;;3.62;0.80;;;;;;;19.70;60.27;97952.41;4439726;32;20183;-87
2023/03/09 10:22:09;;;;;;;1.40;0.73;;;;;;;19.80;60.27;97955.78;4439556;32;20417;-87
2023/03/09 10:24:45;;;;;;;4.55;1.52;;;;;;;19.86;60.28;97963.94;4427005;32;20073;-87
2023/03/09 10:27:35;;;;;;;1.62;0.68;;;;;;;19.80;60.28;97963.72;4452214;32;20105;-87
2023/03/09 10:30:03;;;;;;;;;;;;;;;19.89;60.27;97962.81;4452295;32;20131;-87
2023/03/09 10:32:52;;;;;;;2.55;0.60;;;;;;;20.09;60.29;97974.03;4453030;32;19987;-87
2023/03/09 10:35:26;;;;;;;2.20;0.57;;;;;;;20.22;60.29;97974.50;4454652;32;20093;-87
2023/03/09 10:37:52;;;;;;;1.87;0.80;;;;;;;20.06;60.28;97980.44;4454560;32;20496;-86
2023/03/09 10:40:25;;;;;;;1.95;0.65;;;;;;;20.08;60.29;97993.50;4454464;32;20093;-87
2023/03/09 10:42:50;;;;;;;0.62;0.60;;;;;;;19.91;60.27;97988.09;4441806;32;20144;-88
2023/03/09 10:45:23;;;;;;;2.95;0.82;;;;;;;19.94;60.28;97989.59;4441629;32;20209;-87
2023/03/09 10:48:05;;;;;;;2.17;0.50;;;;;;;20.00;60.27;97985.50;4454524;32;20097;-88
2023/03/09 10:50:35;;;;;;;2.60;1.30;;;;;;;20.14;60.28;97991.09;4442233;32;20085;-88
2023/03/09 10:53:25;;;;;;;5.70;1.45;;;;;;;20.41;60.30;97989.37;4441934;32;20112;-87
2023/03/09 10:55:52;;;;;;;2.45;0.68;;;;;;;20.58;60.31;98001.69;4455814;32;20072;-88
2023/03/09 10:58:21;;;;;;;1.83;0.65;;;;;;;20.51;60.30;97995.38;4454410;32;20124;-88
2023/03/09 11:00:54;;;;;;;6.30;0.80;;;;;;;20.32;60.30;97992.88;4454448;32;20461;-88
2023/03/09 11:03:30;;;;;;;2.30;0.55;;;;;;;20.56;60.32;97984.34;4441210;32;20462;-87
2023/03/09 11:06:27;;;;;;;2.75;0.93;;;;;;;20.58;60.31;97987.66;4429591;32;20209;-87
2023/03/09 11:09:14;;;;;;;2.87;0.60;;;;;;;20.63;60.32;97988.87;4454167;32;20154;-86
2023/03/09 11:11:41;;;;;;;3.92;0.90;;;;;;;20.65;60.32;97986.06;4454141;32;20085;-87
2023/03/09 11:14:27;;;;;;;4.75;0.93;;;;;;;20.54;60.30;97995.91;4428622;32;20452;-88
2023/03/09 11:16:54;;;;;;;3.83;1.30;;;;;;;20.10;60.29;98002.09;4442222;32;20129;-88
2023/03/09 11:19:19;;;;;;;3.97;1.77;;;;;;;19.99;60.28;98007.62;4441673;32;20115;-88
2023/03/09 11:21:57;;;;;;;2.97;1.50;;;;;;;19.81;60.27;98015.53;4441518;32;20097;-88
2023/03/09 11:24:48;;;;;;;5.12;1.62;;;;;;;19.62;60.27;98027.03;4455586;32;20080;-88
2023/03/09 11:27:13;;;;;;;5.72;1.30;;;;;;;19.40;60.26;98015.06;4438262;32;20092;-88
2023/03/09 11:30:11;;;;;;;4.68;1.23;;;;;;;19.57;60.26;98011.66;4453983;32;20395;-88
2023/03/09 11:32:36;;;;;;;3.35;1.35;;;;;;;19.41;60.26;98022.00;4445782;32;20402;-88
2023/03/09 11:35:02;;;;;;;2.67;0.95;;;;;;;19.28;60.24;98016.22;4453936;32;20085;-88
2023/03/09 11:37:30;;;;;;;5.93;1.12;;;;;;;19.46;60.25;98016.28;4454186;32;20089;-88